Time;durP1;ratioP1;P1;durP2;ratioP2;P2;SDS_P1;SDS_P2;PMS_P1;PMS_P2;Temp;Humidity;BMP_temperature;BMP_pressure;BME280_temperature;BME280_humidity;BME280_pressure;Samples;Min_cycle;Max_cycle;Signal;HPM_P1;HPM_P2
2022/06/01 00:00:57;;;;;;;;;;;18.80;53.60;;;;;;5037547;28;19933;-72
2022/06/01 00:03:24;;;;;;;;;;;18.80;53.60;;;;;;5039875;28;19924;-70
2022/06/01 00:05:53;;;;;;;;;;;18.80;53.70;;;;;;5040729;28;19935;-71
2022/06/01 00:08:20;;;;;;;;;;;18.70;53.80;;;;;;5045849;28;19936;-72
2022/06/01 00:10:48;;;;;;;;;;;18.70;53.80;;;;;;5046614;28;19929;-75
2022/06/01 00:13:14;;;;;;;;;;;18.70;53.90;;;;;;5046396;28;19928;-75
2022/06/01 00:15:41;;;;;;;;;;;18.60;53.90;;;;;;5043883;28;19986;-72
2022/06/01 00:18:08;;;;;;;;;;;18.60;53.90;;;;;;5046925;28;19932;-71
2022/06/01 00:20:35;;;;;;;;;;;18.60;53.90;;;;;;5044661;28;20409;-74
2022/06/01 00:23:01;;;;;;;;;;;18.60;54.00;;;;;;5045874;28;19935;-72
2022/06/01 00:25:29;;;;;;;;;;;18.50;54.60;;;;;;5045569;28;20130;-71
2022/06/01 00:27:57;;;;;;;;;;;18.60;54.10;;;;;;5047441;28;19929;-73
2022/06/01 00:30:23;;;;;;;;;;;18.50;54.10;;;;;;5044553;28;20393;-73
2022/06/01 00:32:50;;;;;;;;;;;18.50;54.30;;;;;;5043762;28;20680;-72
2022/06/01 00:35:18;;;;;;;;;;;18.40;54.40;;;;;;5044337;28;19940;-72
2022/06/01 00:37:44;;;;;;;;;;;18.40;55.00;;;;;;5043776;28;20363;-74
2022/06/01 00:40:12;;;;;;;;;;;18.40;54.50;;;;;;5045304;28;19929;-71
2022/06/01 00:42:39;;;;;;;;;;;18.40;54.70;;;;;;5046344;28;20415;-74
2022/06/01 00:45:08;;;;;;;;;;;18.30;54.80;;;;;;5038601;28;19937;-71
2022/06/01 00:47:35;;;;;;;;;;;18.30;54.90;;;;;;5046163;28;19935;-72
2022/06/01 00:50:05;;;;;;;;;;;18.30;55.10;;;;;;5044864;28;19928;-71
2022/06/01 00:52:36;;;;;;;;;;;18.30;55.20;;;;;;5044139;28;19932;-73
2022/06/01 00:55:04;;;;;;;;;;;18.20;55.20;;;;;;5044915;28;20523;-73
2022/06/01 00:57:31;;;;;;;;;;;18.20;55.20;;;;;;5046605;28;19997;-71
2022/06/01 00:59:58;;;;;;;;;;;18.20;55.30;;;;;;5045620;28;19964;-74
2022/06/01 01:02:26;;;;;;;;;;;18.20;55.30;;;;;;5045648;28;19928;-73
2022/06/01 01:04:53;;;;;;;;;;;18.20;55.50;;;;;;5046818;28;20498;-71
2022/06/01 01:07:20;;;;;;;;;;;18.10;55.60;;;;;;5042856;28;19932;-74
2022/06/01 01:09:46;;;;;;;;;;;18.10;55.60;;;;;;5045818;28;19929;-76
2022/06/01 01:12:13;;;;;;;;;;;18.10;55.80;;;;;;5046076;28;19936;-71
2022/06/01 01:14:43;;;;;;;;;;;18.10;55.80;;;;;;5043766;28;19928;-70
2022/06/01 01:17:10;;;;;;;;;;;18.00;55.90;;;;;;5039313;28;19929;-75
2022/06/01 01:19:40;;;;;;;;;;;18.00;55.90;;;;;;5043767;28;20813;-72
2022/06/01 01:22:26;;;;;;;;;;;18.00;56.10;;;;;;5044867;28;19940;-69
2022/06/01 01:25:15;;;;;;;;;;;17.90;56.10;;;;;;5042558;28;19928;-73
2022/06/01 01:27:42;;;;;;;;;;;17.90;56.20;;;;;;5045886;28;19959;-71
2022/06/01 01:30:25;;;;;;;;;;;17.90;56.20;;;;;;5036870;28;19940;-74
2022/06/01 01:32:52;;;;;;;;;;;17.90;56.30;;;;;;5045549;28;19936;-74
2022/06/01 01:35:19;;;;;;;;;;;17.80;56.30;;;;;;5047200;28;19975;-73
2022/06/01 01:37:46;;;;;;;;;;;17.80;56.30;;;;;;5042574;28;19968;-76
2022/06/01 01:40:14;;;;;;;;;;;17.70;56.30;;;;;;5044708;28;19933;-71
2022/06/01 01:42:41;;;;;;;;;;;17.70;56.40;;;;;;5041375;28;19982;-72
2022/06/01 01:45:12;;;;;;;;;;;17.70;56.40;;;;;;5042749;28;19932;-74
2022/06/01 01:47:39;;;;;;;;;;;17.70;56.50;;;;;;5041960;28;19936;-77
2022/06/01 01:50:08;;;;;;;;;;;17.70;56.50;;;;;;5041360;28;20300;-70
2022/06/01 01:52:35;;;;;;;;;;;17.70;56.60;;;;;;5041769;28;19936;-71
2022/06/01 01:55:04;;;;;;;;;;;17.60;56.70;;;;;;5043803;28;19929;-73
2022/06/01 01:57:35;;;;;;;;;;;17.60;56.20;;;;;;5045143;28;19936;-71
2022/06/01 02:00:08;;;;;;;;;;;17.50;56.60;;;;;;5042035;28;20440;-70
2022/06/01 02:02:37;;;;;;;;;;;17.50;56.70;;;;;;5045682;28;19928;-70
2022/06/01 02:07:54;;;;;;;;;;;17.50;56.90;;;;;;5041868;28;19935;-72
2022/06/01 02:13:07;;;;;;;;;;;17.50;57.20;;;;;;5042588;28;19970;-74
2022/06/01 02:15:35;;;;;;;;;;;17.40;57.20;;;;;;5039834;28;20025;-71
2022/06/01 02:18:06;;;;;;;;;;;17.40;57.30;;;;;;5043481;28;19971;-72
2022/06/01 02:20:34;;;;;;;;;;;17.40;57.40;;;;;;5043154;28;19928;-71
2022/06/01 02:23:01;;;;;;;;;;;17.40;57.50;;;;;;5043577;28;19928;-74
2022/06/01 02:25:29;;;;;;;;;;;17.30;57.60;;;;;;5044269;28;19975;-75
2022/06/01 02:27:57;;;;;;;;;;;17.30;57.90;;;;;;5044534;28;19936;-75
2022/06/01 02:30:27;;;;;;;;;;;17.30;57.90;;;;;;5037555;28;19935;-72
2022/06/01 02:32:55;;;;;;;;;;;17.30;58.00;;;;;;5043825;28;20001;-72
2022/06/01 02:35:24;;;;;;;;;;;17.20;58.00;;;;;;5043565;28;19925;-74
2022/06/01 02:37:52;;;;;;;;;;;17.20;58.20;;;;;;5041212;28;19929;-72
2022/06/01 02:40:20;;;;;;;;;;;17.20;58.30;;;;;;5043156;28;19940;-73
2022/06/01 02:42:49;;;;;;;;;;;17.20;58.40;;;;;;5040399;28;19928;-75
2022/06/01 02:45:16;;;;;;;;;;;17.20;58.50;;;;;;5040752;28;20693;-75
2022/06/01 02:47:45;;;;;;;;;;;17.10;58.60;;;;;;5044301;28;19929;-74
2022/06/01 02:50:12;;;;;;;;;;;17.10;58.60;;;;;;5044173;28;19928;-70
2022/06/01 02:52:39;;;;;;;;;;;17.10;58.60;;;;;;5036083;28;19933;-72
2022/06/01 02:55:08;;;;;;;;;;;17.10;58.70;;;;;;5043140;28;20438;-70
2022/06/01 02:57:35;;;;;;;;;;;17.00;58.60;;;;;;5043422;28;19964;-73
2022/06/01 03:00:02;;;;;;;;;;;17.00;58.70;;;;;;5039463;28;19928;-72
2022/06/01 03:02:29;;;;;;;;;;;17.00;58.80;;;;;;5048836;28;20534;-75
2022/06/01 03:04:56;;;;;;;;;;;17.00;58.70;;;;;;5045421;28;20552;-74
2022/06/01 03:07:24;;;;;;;;;;;16.90;58.60;;;;;;5041022;28;19938;-71
2022/06/01 03:09:50;;;;;;;;;;;16.90;58.70;;;;;;5044019;28;19935;-70
2022/06/01 03:12:17;;;;;;;;;;;16.90;58.80;;;;;;5043994;28;19929;-75
2022/06/01 03:14:43;;;;;;;;;;;16.90;58.80;;;;;;5040861;28;19929;-73
2022/06/01 03:17:10;;;;;;;;;;;16.90;58.90;;;;;;5037084;28;19935;-73
2022/06/01 03:19:36;;;;;;;;;;;16.80;58.90;;;;;;5042665;28;19925;-71
2022/06/01 03:22:05;;;;;;;;;;;16.80;58.90;;;;;;5042747;28;19928;-74
2022/06/01 03:24:32;;;;;;;;;;;16.80;59.00;;;;;;5042464;28;19951;-71
2022/06/01 03:26:58;;;;;;;;;;;16.80;59.60;;;;;;5043467;28;19939;-72
2022/06/01 03:29:25;;;;;;;;;;;16.80;59.00;;;;;;5038638;28;19937;-73
2022/06/01 03:31:51;;;;;;;;;;;16.70;59.10;;;;;;5040814;28;20035;-71
2022/06/01 03:34:18;;;;;;;;;;;16.70;59.20;;;;;;5042579;28;20373;-72
2022/06/01 03:36:45;;;;;;;;;;;16.70;59.30;;;;;;5040868;28;19986;-74
2022/06/01 03:39:13;;;;;;;;;;;16.60;59.20;;;;;;5044733;28;19932;-72
2022/06/01 03:41:39;;;;;;;;;;;16.60;59.40;;;;;;5039810;28;19982;-72
2022/06/01 03:46:52;;;;;;;;;;;16.60;59.40;;;;;;5041145;28;19932;-74
2022/06/01 03:49:19;;;;;;;;;;;16.60;59.50;;;;;;5043617;28;19936;-73
2022/06/01 03:51:45;;;;;;;;;;;16.50;59.50;;;;;;5040533;28;19963;-72
2022/06/01 03:54:13;;;;;;;;;;;16.50;59.60;;;;;;5042841;28;19928;-74
2022/06/01 03:56:40;;;;;;;;;;;16.50;59.60;;;;;;5042431;28;19929;-71
2022/06/01 03:59:07;;;;;;;;;;;16.40;59.70;;;;;;5043565;28;19935;-70
2022/06/01 04:01:33;;;;;;;;;;;16.40;59.70;;;;;;5042123;28;19936;-74
2022/06/01 04:04:00;;;;;;;;;;;16.40;59.70;;;;;;5041661;28;19929;-72
2022/06/01 04:06:27;;;;;;;;;;;16.40;59.70;;;;;;5038250;28;19936;-74
2022/06/01 04:08:53;;;;;;;;;;;16.30;59.70;;;;;;5041656;28;19929;-72
2022/06/01 04:11:21;;;;;;;;;;;16.30;59.70;;;;;;5035203;28;19933;-75
2022/06/01 04:13:48;;;;;;;;;;;16.30;59.90;;;;;;5026269;28;19929;-74
2022/06/01 04:16:18;;;;;;;;;;;16.20;59.80;;;;;;5033700;28;19928;-73
2022/06/01 04:18:45;;;;;;;;;;;16.30;59.90;;;;;;5042162;28;20487;-75
2022/06/01 04:21:11;;;;;;;;;;;16.20;60.60;;;;;;5039095;28;20312;-71
2022/06/01 04:23:38;;;;;;;;;;;16.20;59.90;;;;;;5040658;28;20412;-75
2022/06/01 04:26:05;;;;;;;;;;;16.20;59.90;;;;;;5039989;28;20316;-71
2022/06/01 04:28:33;;;;;;;;;;;16.10;60.00;;;;;;5041493;28;20329;-70
2022/06/01 04:31:00;;;;;;;;;;;16.10;59.90;;;;;;5040040;28;19942;-71
2022/06/01 04:33:27;;;;;;;;;;;16.10;60.00;;;;;;5041455;28;19951;-74
2022/06/01 04:35:53;;;;;;;;;;;16.10;60.00;;;;;;5033599;28;19929;-72
2022/06/01 04:38:20;;;;;;;;;;;16.10;60.10;;;;;;5041017;28;20018;-74
2022/06/01 04:40:48;;;;;;;;;;;16.10;60.20;;;;;;5042151;28;19940;-74
2022/06/01 04:43:15;;;;;;;;;;;16.10;60.30;;;;;;5039778;28;19955;-72
2022/06/01 04:45:43;;;;;;;;;;;16.00;60.20;;;;;;5038358;28;20363;-70
2022/06/01 04:48:10;;;;;;;;;;;16.00;60.30;;;;;;5041210;28;19944;-74
2022/06/01 04:50:42;;;;;;;;;;;15.90;60.30;;;;;;5038638;28;19925;-72
2022/06/01 04:53:08;;;;;;;;;;;16.00;60.50;;;;;;5038403;28;20515;-71
2022/06/01 04:55:35;;;;;;;;;;;15.90;60.50;;;;;;5045036;28;19932;-71
2022/06/01 04:58:01;;;;;;;;;;;15.90;60.60;;;;;;5044048;28;19932;-70
2022/06/01 05:00:28;;;;;;;;;;;15.90;60.70;;;;;;5041113;28;19935;-64
2022/06/01 05:02:56;;;;;;;;;;;15.90;60.90;;;;;;5049593;28;19932;-70
2022/06/01 05:05:23;;;;;;;;;;;15.90;60.90;;;;;;5044159;28;19928;-68
2022/06/01 05:07:49;;;;;;;;;;;15.80;60.90;;;;;;5043085;28;19936;-68
2022/06/01 05:10:16;;;;;;;;;;;15.80;61.00;;;;;;5046034;28;20417;-68
2022/06/01 05:12:42;;;;;;;;;;;15.80;61.10;;;;;;5045165;28;19928;-74
2022/06/01 05:15:10;;;;;;;;;;;15.80;61.20;;;;;;5039654;28;19939;-64
2022/06/01 05:17:36;;;;;;;;;;;15.80;61.20;;;;;;5045914;28;20597;-66
2022/06/01 05:20:05;;;;;;;;;;;15.70;61.30;;;;;;5041522;28;20343;-66
2022/06/01 05:22:32;;;;;;;;;;;15.80;61.50;;;;;;5043619;28;20289;-69
2022/06/01 05:24:58;;;;;;;;;;;15.70;61.60;;;;;;5046461;28;19936;-69
2022/06/01 05:27:25;;;;;;;;;;;15.70;61.60;;;;;;5045298;28;21287;-69
2022/06/01 05:29:51;;;;;;;;;;;15.70;61.60;;;;;;5043067;28;19929;-66
2022/06/01 05:32:18;;;;;;;;;;;15.70;61.60;;;;;;5045335;28;19936;-68
2022/06/01 05:34:45;;;;;;;;;;;15.70;61.40;;;;;;5045432;28;19932;-71
2022/06/01 05:37:13;;;;;;;;;;;15.70;61.20;;;;;;5042769;28;19933;-66
2022/06/01 05:39:40;;;;;;;;;;;15.70;61.20;;;;;;5045269;28;19928;-68
2022/06/01 05:42:07;;;;;;;;;;;15.80;61.30;;;;;;5041788;28;19928;-65
2022/06/01 05:44:33;;;;;;;;;;;15.70;61.30;;;;;;5042692;28;19933;-71
2022/06/01 05:47:01;;;;;;;;;;;15.80;61.60;;;;;;5043864;28;19939;-70
2022/06/01 05:49:28;;;;;;;;;;;15.80;61.70;;;;;;5045789;28;19932;-64
2022/06/01 05:51:55;;;;;;;;;;;15.80;61.60;;;;;;5042188;28;19936;-66
2022/06/01 05:54:23;;;;;;;;;;;15.80;61.80;;;;;;5045636;28;20317;-66
2022/06/01 05:56:49;;;;;;;;;;;15.90;61.90;;;;;;5045167;28;19941;-66
2022/06/01 05:59:16;;;;;;;;;;;15.90;62.00;;;;;;5045842;28;19959;-71
2022/06/01 06:01:43;;;;;;;;;;;15.90;62.10;;;;;;5044218;28;19955;-69
2022/06/01 06:04:09;;;;;;;;;;;15.90;62.00;;;;;;5047857;28;19932;-66
2022/06/01 06:06:36;;;;;;;;;;;15.90;61.90;;;;;;5042075;28;19929;-66
2022/06/01 06:09:05;;;;;;;;;;;16.00;62.20;;;;;;5044790;28;19928;-71
2022/06/01 06:11:34;;;;;;;;;;;16.00;62.00;;;;;;5045273;28;20450;-66
2022/06/01 06:14:01;;;;;;;;;;;16.00;61.80;;;;;;5043474;28;19940;-70
2022/06/01 06:16:28;;;;;;;;;;;16.00;61.80;;;;;;5045016;28;19928;-68
2022/06/01 06:18:56;;;;;;;;;;;16.10;61.90;;;;;;5045351;28;20736;-71
2022/06/01 06:21:22;;;;;;;;;;;16.10;62.00;;;;;;5043149;28;20390;-69
2022/06/01 06:23:49;;;;;;;;;;;16.10;61.90;;;;;;5044738;28;19929;-67
2022/06/01 06:26:16;;;;;;;;;;;16.10;62.20;;;;;;5044903;28;19929;-69
2022/06/01 06:28:44;;;;;;;;;;;16.10;62.30;;;;;;5045457;28;19980;-68
2022/06/01 06:31:11;;;;;;;;;;;16.20;62.40;;;;;;5040279;28;20045;-69
2022/06/01 06:33:40;;;;;;;;;;;16.20;62.00;;;;;;5043857;28;19929;-67
2022/06/01 06:36:07;;;;;;;;;;;16.20;62.20;;;;;;5041687;28;19928;-66
2022/06/01 06:38:35;;;;;;;;;;;16.20;62.00;;;;;;5039872;28;20297;-67
2022/06/01 06:41:02;;;;;;;;;;;16.20;62.30;;;;;;5046311;28;19936;-68
2022/06/01 06:43:29;;;;;;;;;;;16.30;62.40;;;;;;5043795;28;19939;-68
2022/06/01 06:45:58;;;;;;;;;;;16.30;62.30;;;;;;5043845;28;19942;-67
2022/06/01 06:48:25;;;;;;;;;;;16.30;62.60;;;;;;5045491;28;19928;-67
2022/06/01 06:50:52;;;;;;;;;;;16.30;62.60;;;;;;5042369;28;19987;-68
2022/06/01 06:53:18;;;;;;;;;;;16.40;62.60;;;;;;5044510;28;19972;-71
2022/06/01 06:55:45;;;;;;;;;;;16.30;62.40;;;;;;5044773;28;19935;-68
2022/06/01 06:58:11;;;;;;;;;;;16.40;62.80;;;;;;5045052;28;19925;-67
2022/06/01 07:00:38;;;;;;;;;;;16.50;63.10;;;;;;5036306;28;20586;-70
2022/06/01 07:03:06;;;;;;;;;;;16.50;62.70;;;;;;5051443;28;19935;-68
2022/06/01 07:08:17;;;;;;;;;;;16.50;62.90;;;;;;5044178;28;19931;-69
2022/06/01 07:10:44;;;;;;;;;;;16.60;63.00;;;;;;5044777;28;19928;-67
2022/06/01 07:13:10;;;;;;;;;;;16.60;63.30;;;;;;5043692;28;19925;-70
2022/06/01 07:15:37;;;;;;;;;;;16.60;63.10;;;;;;5042728;28;19929;-68
2022/06/01 07:18:04;;;;;;;;;;;16.60;63.30;;;;;;5043160;28;19935;-63
2022/06/01 07:20:33;;;;;;;;;;;16.60;63.20;;;;;;5043427;28;20031;-72
2022/06/01 07:22:59;;;;;;;;;;;16.70;63.20;;;;;;5044122;28;19929;-66
2022/06/01 07:25:27;;;;;;;;;;;16.70;63.20;;;;;;5044252;28;19938;-69
2022/06/01 07:27:54;;;;;;;;;;;16.80;63.30;;;;;;5043955;28;20044;-66
2022/06/01 07:30:21;;;;;;;;;;;16.80;63.10;;;;;;5041790;28;19935;-67
2022/06/01 07:32:48;;;;;;;;;;;16.80;63.00;;;;;;5045680;28;19925;-74
2022/06/01 07:35:14;;;;;;;;;;;16.90;63.10;;;;;;5043722;28;19932;-67
2022/06/01 07:43:11;;;;;;;;;;;16.90;62.80;;;;;;5043122;28;19948;-69
2022/06/01 07:45:39;;;;;;;;;;;17.00;62.70;;;;;;5041353;28;20781;-66
2022/06/01 07:48:06;;;;;;;;;;;17.00;62.50;;;;;;5046695;28;19928;-69
2022/06/01 07:50:34;;;;;;;;;;;17.00;62.20;;;;;;5044346;28;19958;-67
2022/06/01 07:53:02;;;;;;;;;;;17.00;62.00;;;;;;5041519;28;19950;-71
2022/06/01 07:55:29;;;;;;;;;;;17.10;62.50;;;;;;5044494;28;19959;-67
2022/06/01 07:57:55;;;;;;;;;;;17.10;61.50;;;;;;5044068;28;19928;-69
2022/06/01 08:00:22;;;;;;;;;;;17.20;61.50;;;;;;5033559;28;19936;-71
2022/06/01 08:02:49;;;;;;;;;;;17.20;61.20;;;;;;5044076;28;19924;-68
2022/06/01 08:05:16;;;;;;;;;;;17.20;61.00;;;;;;5039865;28;19929;-65
2022/06/01 08:07:43;;;;;;;;;;;17.30;60.60;;;;;;5042150;28;20397;-67
2022/06/01 08:10:12;;;;;;;;;;;17.30;60.40;;;;;;5043419;28;19929;-73
2022/06/01 08:15:22;;;;;;;;;;;17.40;60.10;;;;;;5036244;28;19988;-72
2022/06/01 08:17:49;;;;;;;;;;;17.40;59.80;;;;;;5043687;28;19924;-68
2022/06/01 08:20:16;;;;;;;;;;;17.50;59.50;;;;;;5043606;28;19931;-66
2022/06/01 08:22:43;;;;;;;;;;;17.50;59.40;;;;;;5042517;28;19936;-71
2022/06/01 08:25:14;;;;;;;;;;;17.50;59.30;;;;;;5043867;28;19936;-68
2022/06/01 08:27:40;;;;;;;;;;;17.50;59.10;;;;;;5043853;28;19944;-68
2022/06/01 08:30:07;;;;;;;;;;;17.60;59.10;;;;;;5044184;28;19936;-66
2022/06/01 08:32:34;;;;;;;;;;;17.60;58.90;;;;;;5046000;28;19937;-71
2022/06/01 08:35:01;;;;;;;;;;;17.70;58.60;;;;;;5047890;28;19929;-68
2022/06/01 08:37:28;;;;;;;;;;;17.70;58.50;;;;;;5044180;28;19936;-66
2022/06/01 08:39:54;;;;;;;;;;;17.70;57.90;;;;;;5044608;28;19929;-67
2022/06/01 08:42:23;;;;;;;;;;;17.80;57.70;;;;;;5047025;28;19933;-67
2022/06/01 08:44:51;;;;;;;;;;;17.80;57.80;;;;;;5047804;28;20030;-68
2022/06/01 08:47:21;;;;;;;;;;;17.80;57.70;;;;;;5045105;28;19932;-70
2022/06/01 08:49:47;;;;;;;;;;;17.90;57.40;;;;;;5047830;28;19925;-71
2022/06/01 08:52:14;;;;;;;;;;;17.90;57.30;;;;;;5039158;28;19929;-68
2022/06/01 08:54:40;;;;;;;;;;;18.00;56.70;;;;;;5047407;28;19939;-65
2022/06/01 08:57:10;;;;;;;;;;;18.00;56.30;;;;;;5047165;28;19933;-71
2022/06/01 08:59:42;;;;;;;;;;;18.10;56.30;;;;;;5044153;28;19933;-64
2022/06/01 09:02:17;;;;;;;;;;;18.10;56.20;;;;;;5048032;28;19937;-68
2022/06/01 09:04:46;;;;;;;;;;;18.10;55.90;;;;;;5047146;28;19928;-68
2022/06/01 09:07:19;;;;;;;;;;;18.20;55.90;;;;;;5039356;28;19963;-69
2022/06/01 09:09:50;;;;;;;;;;;18.20;56.10;;;;;;5046892;28;20446;-72
2022/06/01 09:12:17;;;;;;;;;;;18.30;55.40;;;;;;5047341;28;19939;-67
2022/06/01 09:14:50;;;;;;;;;;;18.30;55.20;;;;;;5046913;28;20388;-67
2022/06/01 09:17:16;;;;;;;;;;;18.30;54.90;;;;;;5039794;28;19936;-72
2022/06/01 09:22:42;;;;;;;;;;;18.40;54.90;;;;;;5041940;28;19932;-71
2022/06/01 09:25:10;;;;;;;;;;;18.50;54.90;;;;;;5047883;28;19937;-75
2022/06/01 09:27:38;;;;;;;;;;;18.50;55.40;;;;;;5048472;28;19929;-66
2022/06/01 09:30:19;;;;;;;;;;;18.60;54.70;;;;;;5046251;28;20032;-70
2022/06/01 09:32:59;;;;;;;;;;;18.70;54.70;;;;;;5046136;28;19936;-70
2022/06/01 09:35:28;;;;;;;;;;;18.70;54.70;;;;;;5042069;28;19936;-72
2022/06/01 09:37:54;;;;;;;;;;;18.80;54.30;;;;;;5043152;28;19932;-67
2022/06/01 09:40:22;;;;;;;;;;;18.90;54.20;;;;;;5046962;28;19936;-65
2022/06/01 09:42:50;;;;;;;;;;;18.90;53.90;;;;;;5046045;28;19929;-65
2022/06/01 09:45:24;;;;;;;;;;;19.00;53.70;;;;;;5036443;28;19932;-69
2022/06/01 09:47:51;;;;;;;;;;;19.00;53.40;;;;;;5046319;28;19929;-68
2022/06/01 09:50:23;;;;;;;;;;;19.10;53.20;;;;;;5045549;28;19925;-71
2022/06/01 09:52:50;;;;;;;;;;;19.10;53.10;;;;;;5042409;28;19932;-66
2022/06/01 09:55:21;;;;;;;;;;;19.20;52.60;;;;;;5045728;28;20028;-76
2022/06/01 09:57:57;;;;;;;;;;;19.20;52.80;;;;;;5046438;28;20277;-76
2022/06/01 10:06:09;;;;;;;;;;;19.50;52.30;;;;;;4997533;28;19949;-70
2022/06/01 10:08:42;;;;;;;;;;;19.60;52.10;;;;;;5044577;28;19936;-69
2022/06/01 10:11:27;;;;;;;;;;;19.60;51.90;;;;;;5045751;28;20019;-69
2022/06/01 10:13:54;;;;;;;;;;;19.70;51.60;;;;;;5040849;28;20035;-66
2022/06/01 10:16:29;;;;;;;;;;;19.70;51.40;;;;;;5044625;28;20379;-66
2022/06/01 10:18:57;;;;;;;;;;;19.80;50.90;;;;;;5045310;28;19932;-71
2022/06/01 10:21:26;;;;;;;;;;;19.90;51.10;;;;;;5043782;28;19933;-67
2022/06/01 10:23:55;;;;;;;;;;;20.00;50.90;;;;;;5044560;28;20312;-70
2022/06/01 10:26:24;;;;;;;;;;;20.10;50.90;;;;;;5045116;28;20016;-65
2022/06/01 10:28:52;;;;;;;;;;;20.10;50.60;;;;;;5045153;28;19936;-69
2022/06/01 10:31:25;;;;;;;;;;;20.20;50.60;;;;;;5042553;28;19937;-73
2022/06/01 10:33:55;;;;;;;;;;;20.30;50.70;;;;;;5044231;28;20411;-69
2022/06/01 10:36:24;;;;;;;;;;;20.30;50.60;;;;;;5036730;28;19952;-68
2022/06/01 10:38:56;;;;;;;;;;;20.40;50.40;;;;;;5041345;28;19935;-67
2022/06/01 10:41:26;;;;;;;;;;;20.40;49.90;;;;;;5046277;28;20148;-73
2022/06/01 10:43:55;;;;;;;;;;;20.50;49.90;;;;;;5043149;28;20039;-73
2022/06/01 10:46:32;;;;;;;;;;;20.60;49.70;;;;;;5037289;28;21554;-65
2022/06/01 10:49:09;;;;;;;;;;;20.70;49.90;;;;;;5044486;28;19929;-66
2022/06/01 10:51:35;;;;;;;;;;;20.70;49.80;;;;;;5040905;28;19936;-71
2022/06/01 10:54:05;;;;;;;;;;;20.80;49.40;;;;;;5043753;28;19936;-66
2022/06/01 10:56:32;;;;;;;;;;;20.80;49.30;;;;;;5044983;28;19940;-66
2022/06/01 10:59:01;;;;;;;;;;;20.90;49.40;;;;;;5044615;28;19929;-67
2022/06/01 11:01:34;;;;;;;;;;;21.00;48.90;;;;;;5039717;28;19925;-68
2022/06/01 11:04:12;;;;;;;;;;;21.00;49.00;;;;;;5048484;28;19928;-70
2022/06/01 11:06:54;;;;;;;;;;;21.10;48.90;;;;;;5040997;28;20339;-68
2022/06/01 11:09:24;;;;;;;;;;;21.10;48.70;;;;;;5038455;28;19928;-68
2022/06/01 11:11:55;;;;;;;;;;;21.10;48.70;;;;;;5044200;28;19928;-66
2022/06/01 11:14:37;;;;;;;;;;;21.20;48.60;;;;;;5044918;28;19943;-66
2022/06/01 11:17:09;;;;;;;;;;;21.20;48.00;;;;;;5043004;28;20304;-70
2022/06/01 11:19:41;;;;;;;;;;;21.30;48.00;;;;;;5044418;28;19939;-69
2022/06/01 11:22:15;;;;;;;;;;;21.30;48.10;;;;;;5042597;28;19933;-66
2022/06/01 11:24:51;;;;;;;;;;;21.40;48.00;;;;;;5044792;28;20019;-68
2022/06/01 11:27:28;;;;;;;;;;;21.40;47.60;;;;;;5039931;28;19933;-72
2022/06/01 11:29:59;;;;;;;;;;;21.50;47.50;;;;;;5043867;28;19932;-65
2022/06/01 11:32:31;;;;;;;;;;;21.50;47.20;;;;;;5041901;28;19932;-68
2022/06/01 11:35:00;;;;;;;;;;;21.50;47.20;;;;;;5044225;28;20316;-69
2022/06/01 11:37:29;;;;;;;;;;;21.60;47.40;;;;;;5040995;28;19929;-69
2022/06/01 11:39:57;;;;;;;;;;;21.60;47.20;;;;;;5046359;28;19936;-73
2022/06/01 11:42:27;;;;;;;;;;;21.60;47.10;;;;;;5040089;28;20467;-68
2022/06/01 11:44:55;;;;;;;;;;;21.60;47.30;;;;;;5042898;28;19933;-69
2022/06/01 11:47:23;;;;;;;;;;;21.70;47.00;;;;;;5043532;28;20383;-69
2022/06/01 11:50:04;;;;;;;;;;;21.70;46.70;;;;;;5044986;28;19928;-74
2022/06/01 11:52:32;;;;;;;;;;;21.80;46.60;;;;;;5037392;28;19936;-68
2022/06/01 11:55:13;;;;;;;;;;;21.80;46.00;;;;;;5044242;28;19929;-70
2022/06/01 11:57:40;;;;;;;;;;;21.80;46.40;;;;;;5044374;28;19964;-71
2022/06/01 12:00:13;;;;;;;;;;;21.90;46.50;;;;;;5039212;28;19928;-66
2022/06/01 12:02:43;;;;;;;;;;;21.90;46.10;;;;;;5050497;28;20411;-70
2022/06/01 12:05:12;;;;;;;;;;;22.00;44.90;;;;;;5047182;28;19936;-70
2022/06/01 12:07:40;;;;;;;;;;;22.10;45.10;;;;;;5044997;28;20016;-67
2022/06/01 12:10:08;;;;;;;;;;;22.10;43.40;;;;;;5046719;28;19928;-68
2022/06/01 12:12:45;;;;;;;;;;;22.20;44.10;;;;;;5046584;28;20006;-69
2022/06/01 12:15:17;;;;;;;;;;;22.30;43.60;;;;;;5042459;28;20359;-71
2022/06/01 12:17:58;;;;;;;;;;;22.40;43.50;;;;;;5047264;28;19929;-67
2022/06/01 12:20:46;;;;;;;;;;;22.40;43.30;;;;;;5045098;28;19928;-71
2022/06/01 12:29:30;;;;;;;;;;;22.60;42.70;;;;;;5044417;28;19951;-66
2022/06/01 12:32:15;;;;;;;;;;;22.70;42.00;;;;;;5045569;28;19928;-71
2022/06/01 12:34:47;;;;;;;;;;;22.70;42.20;;;;;;5029370;28;19936;-68
2022/06/01 12:37:18;;;;;;;;;;;22.80;42.20;;;;;;5035909;28;19936;-73
2022/06/01 12:39:47;;;;;;;;;;;22.80;42.20;;;;;;5048497;28;19959;-68
2022/06/01 12:42:15;;;;;;;;;;;22.90;41.50;;;;;;5042257;28;19951;-69
2022/06/01 12:44:45;;;;;;;;;;;22.90;41.20;;;;;;5045515;28;20648;-71
2022/06/01 12:47:21;;;;;;;;;;;23.00;41.30;;;;;;5045903;28;19936;-68
2022/06/01 12:49:48;;;;;;;;;;;23.10;40.90;;;;;;5046330;28;19928;-70
2022/06/01 12:52:18;;;;;;;;;;;23.10;40.80;;;;;;5043320;28;19939;-71
2022/06/01 12:54:53;;;;;;;;;;;23.20;40.90;;;;;;5047115;28;20289;-71
2022/06/01 12:57:24;;;;;;;;;;;23.20;40.40;;;;;;5046384;28;19932;-72
2022/06/01 12:59:57;;;;;;;;;;;23.30;40.70;;;;;;5040317;28;19928;-68
2022/06/01 13:02:23;;;;;;;;;;;23.30;41.20;;;;;;5042848;28;19932;-67
2022/06/01 13:04:51;;;;;;;;;;;23.40;40.70;;;;;;5045540;28;19986;-69
2022/06/01 13:07:19;;;;;;;;;;;23.40;40.70;;;;;;5043476;28;19929;-70
2022/06/01 13:09:45;;;;;;;;;;;23.40;39.90;;;;;;5045893;28;19933;-72
2022/06/01 13:12:15;;;;;;;;;;;23.40;40.40;;;;;;5045575;28;19932;-69
2022/06/01 13:14:42;;;;;;;;;;;23.50;40.70;;;;;;5044642;28;20307;-68
2022/06/01 13:17:14;;;;;;;;;;;23.50;39.30;;;;;;5045589;28;19932;-67
2022/06/01 13:19:40;;;;;;;;;;;23.60;39.10;;;;;;5045284;28;19928;-68
2022/06/01 13:22:11;;;;;;;;;;;23.60;39.70;;;;;;5044495;28;19974;-66
2022/06/01 13:24:41;;;;;;;;;;;23.70;40.20;;;;;;5045512;28;19929;-70
2022/06/01 13:27:08;;;;;;;;;;;23.70;40.00;;;;;;5045629;28;19933;-70
2022/06/01 13:29:35;;;;;;;;;;;23.80;40.40;;;;;;5044139;28;19929;-71
2022/06/01 13:32:06;;;;;;;;;;;23.80;39.90;;;;;;5042559;28;19924;-73
2022/06/01 13:34:42;;;;;;;;;;;23.80;39.90;;;;;;5045572;28;19929;-70
2022/06/01 13:37:11;;;;;;;;;;;23.90;38.80;;;;;;5042253;28;19948;-71
2022/06/01 13:39:41;;;;;;;;;;;23.90;39.00;;;;;;5047316;28;19932;-70
2022/06/01 13:42:08;;;;;;;;;;;24.00;39.30;;;;;;5044644;28;19932;-65
2022/06/01 13:44:45;;;;;;;;;;;24.00;38.80;;;;;;5043036;28;19936;-68
2022/06/01 13:47:12;;;;;;;;;;;24.10;38.60;;;;;;5044225;28;19932;-69
2022/06/01 13:49:42;;;;;;;;;;;24.10;39.10;;;;;;5045878;28;20641;-68
2022/06/01 13:52:09;;;;;;;;;;;24.20;38.90;;;;;;5041549;28;19932;-66
2022/06/01 13:54:36;;;;;;;;;;;24.30;39.10;;;;;;5045926;28;20330;-68
2022/06/01 13:57:11;;;;;;;;;;;24.30;38.90;;;;;;5045985;28;19925;-69
2022/06/01 13:59:38;;;;;;;;;;;24.30;38.40;;;;;;5040294;28;19929;-69
2022/06/01 14:02:11;;;;;;;;;;;24.40;38.60;;;;;;5045865;28;19941;-66
2022/06/01 14:04:40;;;;;;;;;;;24.40;38.50;;;;;;5046229;28;19929;-69
2022/06/01 14:07:12;;;;;;;;;;;24.50;38.90;;;;;;5042435;28;19968;-68
2022/06/01 14:09:44;;;;;;;;;;;24.50;39.30;;;;;;5045238;28;19935;-69
2022/06/01 14:12:11;;;;;;;;;;;24.50;38.80;;;;;;5042165;28;19925;-70
2022/06/01 14:14:39;;;;;;;;;;;24.60;38.20;;;;;;5044785;28;19935;-70
2022/06/01 14:17:08;;;;;;;;;;;24.60;38.70;;;;;;5043783;28;20589;-69
2022/06/01 14:19:34;;;;;;;;;;;24.70;38.40;;;;;;5043866;28;19940;-67
2022/06/01 14:22:02;;;;;;;;;;;24.70;38.30;;;;;;5042236;28;19929;-73
2022/06/01 14:28:28;;;;;;;;;;;24.80;38.20;;;;;;5044829;28;19929;-69
2022/06/01 14:30:02;;;;;;;;;;;24.90;38.30;;;;;;5042084;28;19932;-73
2022/06/01 14:32:28;;;;;;;;;;;24.90;38.60;;;;;;5042933;28;19925;-67
2022/06/01 14:34:55;;;;;;;;;;;24.90;38.50;;;;;;5042013;28;19933;-68
2022/06/01 14:37:22;;;;;;;;;;;25.00;38.50;;;;;;5041592;28;19939;-67
2022/06/01 14:39:49;;;;;;;;;;;25.10;38.70;;;;;;5040278;28;20011;-71
2022/06/01 14:42:16;;;;;;;;;;;25.10;38.40;;;;;;5040338;28;19937;-69
2022/06/01 14:44:43;;;;;;;;;;;25.10;37.60;;;;;;5042398;28;19929;-71
2022/06/01 14:47:09;;;;;;;;;;;25.10;37.80;;;;;;5041642;28;19935;-71
2022/06/01 14:49:36;;;;;;;;;;;25.20;38.00;;;;;;5044067;28;19940;-70
2022/06/01 14:52:04;;;;;;;;;;;25.20;37.70;;;;;;5041133;28;19932;-67
2022/06/01 14:54:33;;;;;;;;;;;25.30;37.60;;;;;;5044583;28;19929;-71
2022/06/01 14:57:01;;;;;;;;;;;25.40;38.10;;;;;;5043070;28;19936;-71
2022/06/01 14:59:28;;;;;;;;;;;25.40;37.40;;;;;;5033160;28;19981;-68
2022/06/01 15:01:55;;;;;;;;;;;25.40;37.20;;;;;;5041924;28;19928;-68